Adak, Alaska
Current Conditions -  °F | °C
As of 4:16 PM on Sunday 25 Jan 2015 (Local Time) from PADK Reporting Station
Overcast Overcast  
Wind Chill:   Ceiling: 5000
Heat Index:   Visibility: 10mi
Dew Point: -1°   Wind: 14mph
Humidity: 61%   Direction: 50°NE
Pressure: 29.24"   Gusts: NA
Location:  51.88°N, 176.66°W
Report Text: PADK 260216Z AUTO 05012KT 10SM SCT041 OVC050 06/M01 A2924 RMK AO1
Loading
Personal Weather Stations






























Interactive Weather Map New forecast layout! Learn more

10-Day Weather Forecast

Advertisements
Track Severe Weather on mobile